Time;durP1;ratioP1;P1;durP2;ratioP2;P2;SDS_P1;SDS_P2;PMS_P1;PMS_P2;Temp;Humidity;BMP_temperature;BMP_pressure;BME280_temperature;BME280_humidity;BME280_pressure;Samples;Min_cycle;Max_cycle;Signal;HPM_P1;HPM_P2
2022/05/16 00:00:13;;;;;;;5.07;2.67;;;17.90;98.00;;;;;;5001714;28;20180;-64
2022/05/16 00:02:39;;;;;;;3.33;3.00;;;17.80;98.30;;;;;;5004908;28;20212;-64
2022/05/16 00:05:04;;;;;;;3.10;2.70;;;17.80;98.40;;;;;;5002588;28;20224;-65
2022/05/16 00:07:30;;;;;;;3.07;2.80;;;17.70;98.40;;;;;;5004362;28;20247;-66
2022/05/16 00:09:56;;;;;;;3.20;2.90;;;17.80;98.70;;;;;;5004835;28;20181;-64
2022/05/16 00:12:21;;;;;;;3.43;2.90;;;17.70;98.60;;;;;;5002787;28;20183;-65
2022/05/16 00:14:47;;;;;;;4.60;2.80;;;17.70;98.60;;;;;;5003981;28;20193;-65
2022/05/16 00:17:14;;;;;;;4.00;3.10;;;17.70;98.70;;;;;;5003913;28;20220;-67
2022/05/16 00:19:40;;;;;;;3.83;3.00;;;17.60;98.70;;;;;;5002816;28;20192;-64
2022/05/16 00:22:06;;;;;;;5.00;3.10;;;17.60;98.80;;;;;;5004633;28;20187;-65
2022/05/16 00:24:32;;;;;;;5.80;3.00;;;17.60;98.90;;;;;;5003670;28;20566;-65
2022/05/16 00:27:01;;;;;;;5.73;3.23;;;17.50;98.70;;;;;;5002380;28;20205;-66
2022/05/16 00:29:27;;;;;;;3.60;2.90;;;17.50;98.90;;;;;;5002730;28;20221;-63
2022/05/16 00:31:54;;;;;;;4.97;3.00;;;17.50;99.00;;;;;;4985857;28;20565;-65
2022/05/16 00:34:20;;;;;;;3.67;2.90;;;17.50;99.00;;;;;;5004373;28;20173;-64
2022/05/16 00:36:49;;;;;;;4.43;3.17;;;17.40;99.10;;;;;;5002442;28;20288;-64
2022/05/16 00:39:16;;;;;;;4.27;2.97;;;17.40;99.20;;;;;;5003319;28;20194;-64
2022/05/16 00:41:42;;;;;;;5.10;2.80;;;17.40;99.30;;;;;;5004415;28;20204;-64
2022/05/16 00:44:08;;;;;;;4.27;2.90;;;17.30;99.30;;;;;;4985058;28;20252;-65
2022/05/16 00:46:33;;;;;;;6.63;3.07;;;17.30;99.40;;;;;;5003706;28;20289;-65
2022/05/16 00:49:02;;;;;;;4.53;3.00;;;17.30;99.40;;;;;;5003602;28;20248;-64
2022/05/16 00:51:32;;;;;;;3.43;2.80;;;17.30;99.50;;;;;;5004250;28;21633;-65
2022/05/16 00:54:26;;;;;;;6.00;2.80;;;17.30;99.60;;;;;;5003088;28;20539;-66
2022/05/16 00:56:57;;;;;;;5.30;3.17;;;17.30;99.70;;;;;;4999464;28;20287;-66
2022/05/16 00:59:33;;;;;;;4.43;2.80;;;17.30;99.90;;;;;;5003826;28;20173;-65
2022/05/16 01:04:49;;;;;;;4.70;2.93;;;17.30;99.90;;;;;;4993216;28;20259;-64
2022/05/16 01:07:31;;;;;;;3.57;2.70;;;17.10;99.90;;;;;;4992702;28;20190;-63
2022/05/16 01:09:56;;;;;;;4.47;3.00;;;17.10;99.90;;;;;;4993808;28;20586;-64
2022/05/16 01:12:38;;;;;;;3.37;2.67;;;17.10;99.90;;;;;;4993463;28;20207;-65
2022/05/16 01:15:14;;;;;;;4.00;2.77;;;17.00;99.90;;;;;;4993300;28;20578;-64
2022/05/16 01:17:40;;;;;;;4.17;3.00;;;17.00;99.90;;;;;;4992893;28;20213;-63
2022/05/16 01:20:08;;;;;;;7.00;3.23;;;17.00;99.90;;;;;;4993559;28;20259;-65
2022/05/16 01:22:36;;;;;;;3.53;2.93;;;17.00;99.90;;;;;;4993334;28;20591;-64
2022/05/16 01:25:22;;;;;;;4.37;3.00;;;16.90;99.90;;;;;;4993336;28;20570;-64
2022/05/16 01:27:47;;;;;;;4.23;2.97;;;17.00;99.90;;;;;;4993115;28;20169;-66
2022/05/16 01:30:16;;;;;;;5.03;3.10;;;16.90;99.90;;;;;;4993274;28;20169;-64
2022/05/16 01:32:42;;;;;;;4.60;3.17;;;16.80;99.90;;;;;;4993079;28;20228;-64
2022/05/16 01:35:08;;;;;;;3.97;3.03;;;16.90;99.90;;;;;;4993226;28;20193;-66
2022/05/16 01:40:18;;;;;;;4.00;3.10;;;16.80;99.90;;;;;;4992344;28;20243;-66
2022/05/16 01:42:43;;;;;;;3.70;2.70;;;16.70;99.90;;;;;;4992864;28;20627;-64
2022/05/16 01:45:09;;;;;;;4.73;3.00;;;16.70;99.90;;;;;;4992911;28;20675;-65
2022/05/16 01:47:35;;;;;;;3.23;2.93;;;16.70;99.90;;;;;;4992675;28;20172;-66
2022/05/16 01:50:01;;;;;;;6.60;2.97;;;16.80;99.90;;;;;;4993074;28;20646;-65
2022/05/16 01:52:26;;;;;;;4.97;3.27;;;16.70;99.90;;;;;;4992841;28;20177;-64
2022/05/16 01:54:52;;;;;;;4.53;3.00;;;16.70;99.90;;;;;;4992805;28;20220;-65
2022/05/16 01:57:17;;;;;;;3.33;2.90;;;16.70;99.90;;;;;;4992801;28;20173;-66
2022/05/16 01:59:43;;;;;;;5.87;3.13;;;16.70;99.90;;;;;;4992579;28;20174;-64
2022/05/16 02:02:09;;;;;;;4.17;2.93;;;16.80;99.90;;;;;;4992645;28;20177;-65
2022/05/16 02:04:34;;;;;;;4.17;3.30;;;16.80;99.90;;;;;;4992669;28;20201;-63
2022/05/16 02:07:00;;;;;;;4.00;3.07;;;16.70;99.90;;;;;;4992743;28;20535;-65
2022/05/16 02:09:26;;;;;;;5.13;3.13;;;16.80;99.90;;;;;;4992406;28;20176;-65
2022/05/16 02:11:52;;;;;;;5.53;2.90;;;16.70;99.90;;;;;;4992487;28;20669;-64
2022/05/16 02:14:17;;;;;;;6.63;3.40;;;16.70;99.90;;;;;;4992403;28;20231;-64
2022/05/16 02:16:43;;;;;;;4.47;3.10;;;16.80;99.90;;;;;;4992421;28;20217;-65
2022/05/16 02:19:08;;;;;;;3.27;2.70;;;16.70;99.90;;;;;;4992270;28;20671;-61
2022/05/16 02:27:03;;;;;;;4.43;3.00;;;16.60;99.90;;;;;;4992879;28;20181;-64
2022/05/16 02:29:28;;;;;;;4.43;3.43;;;16.60;99.90;;;;;;4993750;28;20173;-64
2022/05/16 02:31:54;;;;;;;3.97;2.80;;;16.60;99.90;;;;;;4992264;28;20170;-64
2022/05/16 02:34:20;;;;;;;4.40;3.53;;;16.60;99.90;;;;;;4992119;28;20651;-62
2022/05/16 02:36:46;;;;;;;3.87;3.03;;;16.60;99.90;;;;;;4992177;28;20197;-65
2022/05/16 02:39:13;;;;;;;4.57;2.97;;;16.50;99.90;;;;;;4992132;28;20177;-64
2022/05/16 02:41:38;;;;;;;4.27;3.17;;;16.50;99.90;;;;;;4992184;28;20189;-62
2022/05/16 02:44:04;;;;;;;4.17;3.10;;;16.50;99.90;;;;;;4991983;28;20197;-65
2022/05/16 02:46:31;;;;;;;5.77;3.10;;;16.50;99.90;;;;;;4992109;28;20256;-64
2022/05/16 02:48:57;;;;;;;4.23;3.10;;;16.50;99.90;;;;;;4992349;28;20169;-64
2022/05/16 02:51:22;;;;;;;3.63;3.13;;;16.50;99.90;;;;;;4993392;28;20170;-62
2022/05/16 02:53:48;;;;;;;5.00;3.20;;;16.40;99.90;;;;;;4996125;28;20169;-63
2022/05/16 02:56:14;;;;;;;3.97;3.50;;;16.40;99.90;;;;;;4996229;28;20606;-64
2022/05/16 02:58:40;;;;;;;4.87;3.60;;;16.40;99.90;;;;;;4996291;28;20185;-63
2022/05/16 03:01:06;;;;;;;4.33;3.13;;;16.30;99.90;;;;;;4995626;28;20220;-63
2022/05/16 03:03:32;;;;;;;4.90;3.20;;;16.30;99.90;;;;;;4995840;28;20223;-64
2022/05/16 03:05:58;;;;;;;3.53;3.10;;;16.30;99.90;;;;;;4996056;28;20225;-65
2022/05/16 03:08:24;;;;;;;4.40;3.20;;;16.30;99.90;;;;;;4995988;28;20203;-64
2022/05/16 03:10:49;;;;;;;4.00;3.30;;;16.30;99.90;;;;;;4995597;28;20173;-64
2022/05/16 03:13:15;;;;;;;4.07;3.17;;;16.30;99.90;;;;;;4996018;28;20178;-63
2022/05/16 03:15:40;;;;;;;3.37;3.03;;;16.20;99.90;;;;;;4995628;28;20291;-64
2022/05/16 03:18:06;;;;;;;6.73;3.37;;;16.30;99.90;;;;;;4995784;28;20225;-64
2022/05/16 03:20:32;;;;;;;3.87;3.40;;;16.30;99.90;;;;;;4995464;28;20185;-64
2022/05/16 03:22:57;;;;;;;5.67;3.43;;;16.30;99.90;;;;;;4995599;28;20204;-63
2022/05/16 03:25:23;;;;;;;4.57;3.33;;;16.30;99.90;;;;;;4995337;28;20573;-63
2022/05/16 03:27:49;;;;;;;3.93;3.37;;;16.20;99.90;;;;;;4995746;28;20524;-63
2022/05/16 03:30:15;;;;;;;4.40;3.60;;;16.20;99.90;;;;;;4995629;28;20178;-63
2022/05/16 03:32:40;;;;;;;3.93;3.40;;;16.20;99.90;;;;;;4995175;28;20173;-64
2022/05/16 03:35:07;;;;;;;5.80;3.40;;;16.20;99.90;;;;;;4995175;28;20198;-63
2022/05/16 03:37:32;;;;;;;5.03;3.50;;;16.20;99.90;;;;;;4995507;28;20177;-64
2022/05/16 03:42:42;;;;;;;3.50;3.20;;;15.90;99.90;;;;;;4994908;28;20312;-64
2022/05/16 03:45:08;;;;;;;6.63;3.40;;;15.70;99.90;;;;;;4995174;28;20279;-62
2022/05/16 03:47:33;;;;;;;4.70;3.47;;;15.70;99.90;;;;;;4995248;28;20665;-63
2022/05/16 03:49:59;;;;;;;5.77;3.37;;;15.80;99.90;;;;;;4995459;28;20189;-63
2022/05/16 03:52:24;;;;;;;3.90;3.30;;;15.70;99.90;;;;;;4994728;28;20173;-63
2022/05/16 03:54:50;;;;;;;4.17;3.33;;;15.80;99.90;;;;;;4994914;28;20181;-62
2022/05/16 03:57:16;;;;;;;3.80;3.20;;;15.70;99.90;;;;;;4995193;28;20179;-64
2022/05/16 03:59:41;;;;;;;4.73;3.47;;;15.70;99.90;;;;;;4994896;28;20174;-62
2022/05/16 04:02:08;;;;;;;5.57;3.50;;;15.80;99.90;;;;;;4993720;28;20174;-65
2022/05/16 04:04:34;;;;;;;4.67;3.80;;;15.70;99.90;;;;;;4994379;28;20248;-64
2022/05/16 04:06:59;;;;;;;4.40;3.40;;;17.10;99.90;;;;;;4977485;28;20180;-64
2022/05/16 04:09:25;;;;;;;5.37;3.63;;;15.80;99.90;;;;;;4994919;28;20185;-62
2022/05/16 04:11:50;;;;;;;4.03;3.60;;;15.80;99.90;;;;;;4994829;28;20177;-63
2022/05/16 04:14:16;;;;;;;3.43;3.10;;;15.80;99.90;;;;;;4994166;28;20188;-64
2022/05/16 04:16:42;;;;;;;4.03;3.23;;;15.80;99.90;;;;;;4994774;28;20209;-65
2022/05/16 04:19:08;;;;;;;4.83;3.67;;;15.80;99.90;;;;;;4994883;28;20185;-62
2022/05/16 04:21:37;;;;;;;7.50;3.77;;;15.90;99.90;;;;;;4994571;28;20212;-62
2022/05/16 04:24:05;;;;;;;5.10;3.40;;;15.90;99.90;;;;;;4993977;28;20212;-64
2022/05/16 04:26:31;;;;;;;4.20;3.37;;;16.00;99.90;;;;;;4994563;28;20863;-62
2022/05/16 04:28:57;;;;;;;6.83;3.93;;;16.10;99.90;;;;;;4994610;28;20173;-64
2022/05/16 04:31:23;;;;;;;5.67;3.27;;;16.10;99.90;;;;;;4994380;28;20169;-61
2022/05/16 04:33:49;;;;;;;4.77;3.40;;;16.10;99.90;;;;;;5004638;28;20195;-64
2022/05/16 04:36:15;;;;;;;5.00;3.60;;;16.20;99.90;;;;;;5013856;28;20200;-64
2022/05/16 04:38:40;;;;;;;6.07;3.30;;;16.20;99.90;;;;;;5008925;28;20181;-64
2022/05/16 04:43:51;;;;;;;6.60;3.50;;;16.30;99.90;;;;;;4993656;28;20211;-60
2022/05/16 04:46:17;;;;;;;4.93;3.40;;;16.30;99.90;;;;;;4994212;28;20223;-61
2022/05/16 04:48:43;;;;;;;6.00;3.30;;;16.90;99.90;;;;;;4994195;28;20174;-63
2022/05/16 04:51:09;;;;;;;5.93;3.77;;;16.30;99.90;;;;;;5002027;28;20179;-63
2022/05/16 04:53:35;;;;;;;4.33;3.50;;;16.30;99.90;;;;;;5013108;28;20179;-64
2022/05/16 04:56:02;;;;;;;6.60;4.30;;;16.40;99.90;;;;;;5011531;28;20204;-64
2022/05/16 04:58:27;;;;;;;4.77;3.60;;;16.40;99.90;;;;;;5009328;28;20186;-63
2022/05/16 05:00:53;;;;;;;5.93;3.77;;;16.50;99.90;;;;;;4995209;28;20176;-63
2022/05/16 05:03:19;;;;;;;4.73;4.00;;;16.60;99.90;;;;;;4986215;28;20620;-65
2022/05/16 05:05:45;;;;;;;4.40;4.00;;;16.70;99.90;;;;;;4994230;28;20263;-64
2022/05/16 05:08:10;;;;;;;5.20;4.33;;;16.80;99.90;;;;;;5013396;28;20192;-64
2022/05/16 05:16:09;;;;;;;4.83;4.27;;;17.10;99.90;;;;;;5012814;28;20207;-64
2022/05/16 05:18:35;;;;;;;6.47;4.50;;;17.20;99.90;;;;;;5013246;28;20673;-63
2022/05/16 05:21:00;;;;;;;8.60;5.40;;;17.30;99.90;;;;;;5012978;28;20282;-65
2022/05/16 05:23:26;;;;;;;5.10;4.00;;;17.30;99.90;;;;;;5012799;28;20569;-63
2022/05/16 05:25:52;;;;;;;5.67;3.97;;;17.40;99.90;;;;;;5012417;28;20247;-62
2022/05/16 05:28:18;;;;;;;4.40;3.63;;;17.40;99.90;;;;;;5013026;28;20165;-64
2022/05/16 05:30:44;;;;;;;6.33;4.43;;;17.50;99.90;;;;;;5012957;28;20161;-63
2022/05/16 05:33:09;;;;;;;6.47;4.40;;;17.50;99.90;;;;;;5012763;28;20543;-62
2022/05/16 05:35:35;;;;;;;6.60;4.43;;;17.50;99.90;;;;;;5012344;28;20192;-65
2022/05/16 05:38:01;;;;;;;6.03;4.23;;;17.60;99.90;;;;;;5012882;28;20191;-61
2022/05/16 05:40:26;;;;;;;4.63;4.10;;;17.70;99.90;;;;;;4995535;28;20640;-62
2022/05/16 05:42:52;;;;;;;4.93;4.13;;;17.80;99.90;;;;;;5012593;28;20219;-59
2022/05/16 05:45:18;;;;;;;5.00;3.63;;;17.80;99.90;;;;;;5012159;28;20216;-61
2022/05/16 05:47:43;;;;;;;4.10;3.70;;;17.70;99.90;;;;;;5012727;28;20175;-59
2022/05/16 05:50:09;;;;;;;4.23;3.83;;;17.70;99.90;;;;;;5012806;28;20184;-59
2022/05/16 05:52:36;;;;;;;4.07;3.50;;;17.80;99.90;;;;;;4994878;28;20186;-60
2022/05/16 05:55:02;;;;;;;4.70;3.40;;;18.00;99.90;;;;;;5012134;28;20840;-61
2022/05/16 05:57:27;;;;;;;4.37;3.70;;;18.10;99.90;;;;;;5012177;28;20183;-58
2022/05/16 05:59:55;;;;;;;4.87;3.30;;;18.10;99.90;;;;;;5012557;28;20180;-62
2022/05/16 06:02:21;;;;;;;4.37;3.13;;;18.20;99.90;;;;;;5012461;28;20220;-61
2022/05/16 06:04:47;;;;;;;6.30;3.30;;;18.20;99.90;;;;;;5011950;28;20293;-61
2022/05/16 06:07:13;;;;;;;5.27;3.40;;;18.20;99.90;;;;;;5011860;28;20515;-60
2022/05/16 06:09:39;;;;;;;4.03;3.50;;;18.10;99.90;;;;;;5012398;28;20207;-64
2022/05/16 06:12:06;;;;;;;4.23;3.07;;;18.30;99.90;;;;;;5012205;28;20227;-62
2022/05/16 06:14:33;;;;;;;3.50;3.20;;;18.50;99.90;;;;;;5012084;28;20736;-61
2022/05/16 06:16:58;;;;;;;4.00;3.20;;;18.60;99.90;;;;;;5011596;28;20270;-63
2022/05/16 06:19:24;;;;;;;4.47;3.40;;;18.70;99.90;;;;;;5012293;28;20180;-62
2022/05/16 06:21:50;;;;;;;4.50;3.10;;;18.90;99.90;;;;;;5011993;28;20212;-62
2022/05/16 06:27:06;;;;;;;4.53;3.23;;;19.30;99.90;;;;;;4950936;29;20644;-59
2022/05/16 06:29:32;;;;;;;3.67;3.10;;;19.40;99.90;;;;;;4951717;29;20230;-59
2022/05/16 06:31:58;;;;;;;3.10;2.80;;;19.60;99.90;;;;;;4951505;29;20183;-59
2022/05/16 06:34:23;;;;;;;4.67;3.07;;;19.90;99.90;;;;;;4951317;29;20637;-59
2022/05/16 06:36:49;;;;;;;4.80;3.00;;;20.10;99.90;;;;;;4951048;29;20307;-58
2022/05/16 06:39:14;;;;;;;5.20;3.20;;;20.40;99.90;;;;;;4951304;29;20570;-57
2022/05/16 06:41:40;;;;;;;4.87;3.20;;;20.70;99.90;;;;;;4935437;29;20350;-59
2022/05/16 06:44:09;;;;;;;3.90;2.93;;;20.80;99.90;;;;;;4950994;29;20217;-59
2022/05/16 06:46:34;;;;;;;4.53;3.00;;;21.00;99.90;;;;;;4951326;29;20250;-56
2022/05/16 06:49:00;;;;;;;4.97;3.33;;;21.00;99.90;;;;;;4950749;29;20179;-61
2022/05/16 06:51:25;;;;;;;4.27;3.10;;;21.10;99.90;;;;;;4951154;29;20175;-56
2022/05/16 06:53:51;;;;;;;4.67;3.20;;;21.10;99.90;;;;;;4951155;29;20183;-58
2022/05/16 06:56:17;;;;;;;3.55;3.08;;;21.30;99.90;;;;;;4951385;29;20200;-57
2022/05/16 06:58:43;;;;;;;3.57;3.00;;;21.30;99.90;;;;;;4950795;29;20665;-60
2022/05/16 07:01:08;;;;;;;3.55;2.90;;;21.40;99.90;;;;;;4951159;29;20185;-60
2022/05/16 07:03:34;;;;;;;3.10;2.75;;;21.50;99.90;;;;;;4968286;28;20339;-58
2022/05/16 07:05:59;;;;;;;3.17;2.85;;;21.60;99.90;;;;;;5011966;28;20196;-55
2022/05/16 07:08:25;;;;;;;3.35;2.95;;;21.60;99.90;;;;;;5011393;28;20173;-60
2022/05/16 07:10:51;;;;;;;4.85;2.70;;;21.80;99.90;;;;;;5011495;28;20696;-60
2022/05/16 07:13:18;;;;;;;3.90;2.78;;;22.00;99.90;;;;;;5011727;28;20542;-57
2022/05/16 07:15:43;;;;;;;4.45;2.85;;;22.20;99.90;;;;;;5011300;28;20742;-57
2022/05/16 07:18:09;;;;;;;3.42;2.70;;;22.40;99.90;;;;;;5011163;28;20292;-59
2022/05/16 07:20:35;;;;;;;5.15;2.92;;;22.50;99.90;;;;;;5011500;28;20198;-56
2022/05/16 07:23:02;;;;;;;4.43;3.10;;;22.60;99.90;;;;;;5011175;28;20208;-54
2022/05/16 07:25:28;;;;;;;3.30;2.80;;;22.70;99.90;;;;;;5011247;28;20185;-51
2022/05/16 07:27:58;;;;;;;3.05;2.65;;;22.60;99.90;;;;;;5011536;28;20165;-56
2022/05/16 07:30:32;;;;;;;4.15;2.75;;;22.60;99.90;;;;;;5011067;28;20179;-54
2022/05/16 07:32:58;;;;;;;6.07;3.00;;;22.60;99.90;;;;;;5011346;28;20175;-50
2022/05/16 07:35:31;;;;;;;3.53;3.13;;;22.60;99.40;;;;;;5011159;28;20199;-52
2022/05/16 07:37:57;;;;;;;4.53;2.92;;;22.40;99.60;;;;;;5013904;28;20554;-54
2022/05/16 07:40:26;;;;;;;4.43;3.17;;;22.40;99.60;;;;;;5014772;28;20183;-52
2022/05/16 07:42:53;;;;;;;2.85;2.58;;;22.40;99.90;;;;;;5014702;28;20215;-53
2022/05/16 07:45:20;;;;;;;3.25;2.95;;;22.60;99.90;;;;;;5014650;28;20279;-59
2022/05/16 07:47:46;;;;;;;3.28;2.97;;;22.80;99.90;;;;;;5014984;28;20523;-54
2022/05/16 07:50:12;;;;;;;3.65;3.17;;;23.10;99.90;;;;;;5014620;28;20259;-59
2022/05/16 07:52:38;;;;;;;4.72;3.30;;;23.10;99.10;;;;;;5014681;28;20199;-56
2022/05/16 07:55:06;;;;;;;2.92;2.63;;;23.20;99.40;;;;;;5014498;28;20219;-60
2022/05/16 07:57:31;;;;;;;3.88;2.83;;;23.10;99.20;;;;;;5014745;28;20209;-58
2022/05/16 07:59:57;;;;;;;3.00;2.72;;;23.00;98.90;;;;;;5014428;28;20211;-57
2022/05/16 08:02:23;;;;;;;3.63;2.88;;;22.90;99.50;;;;;;5014595;28;20260;-58
2022/05/16 08:04:49;;;;;;;5.22;2.97;;;22.90;99.60;;;;;;5014221;28;20744;-56
2022/05/16 08:07:15;;;;;;;3.10;2.75;;;22.90;99.90;;;;;;5014548;28;20650;-60
2022/05/16 08:12:27;;;;;;;4.45;3.00;;;22.80;99.60;;;;;;5014409;28;20172;-57
2022/05/16 08:14:53;;;;;;;2.92;2.72;;;22.80;99.90;;;;;;5013944;28;20180;-60
2022/05/16 08:17:19;;;;;;;3.03;2.80;;;22.90;99.80;;;;;;5014346;28;20196;-59
2022/05/16 08:19:45;;;;;;;5.03;3.42;;;22.90;99.90;;;;;;5014436;28;20260;-57
2022/05/16 08:22:11;;;;;;;4.93;3.25;;;22.90;99.90;;;;;;5013783;28;20267;-59
2022/05/16 08:24:37;;;;;;;6.38;2.83;;;23.00;99.90;;;;;;5012520;28;20196;-56
2022/05/16 08:27:02;;;;;;;3.55;3.00;;;23.00;99.90;;;;;;5014400;28;20184;-58
2022/05/16 08:29:29;;;;;;;4.13;2.70;;;22.90;99.10;;;;;;5014169;28;20547;-60
2022/05/16 08:31:55;;;;;;;7.10;2.90;;;22.80;99.70;;;;;;5013690;28;20172;-57
2022/05/16 08:34:22;;;;;;;3.03;2.72;;;22.90;99.90;;;;;;5013921;28;20550;-58
2022/05/16 08:42:18;;;;;;;3.13;2.75;;;23.20;99.30;;;;;;5013520;28;20676;-58
2022/05/16 08:45:00;;;;;;;5.03;3.03;;;23.30;99.30;;;;;;5013662;28;20216;-56
2022/05/16 08:47:34;;;;;;;5.28;3.20;;;23.40;99.80;;;;;;5013891;28;20255;-61
2022/05/16 08:50:08;;;;;;;6.78;3.25;;;23.70;99.00;;;;;;5013422;28;20186;-57
2022/05/16 08:52:56;;;;;;;6.60;2.80;;;23.50;98.90;;;;;;5013538;28;20173;-59
2022/05/16 08:55:37;;;;;;;3.10;2.80;;;23.50;99.90;;;;;;5013550;28;20185;-56
2022/05/16 08:58:29;;;;;;;4.03;3.28;;;23.80;99.90;;;;;;5013585;28;20218;-59
2022/05/16 09:00:59;;;;;;;5.10;3.25;;;24.00;99.90;;;;;;5013483;28;20645;-60
2022/05/16 09:04:06;;;;;;;4.00;3.17;;;24.00;99.90;;;;;;5013046;28;20215;-61
2022/05/16 09:06:40;;;;;;;3.45;3.03;;;23.90;99.90;;;;;;4982443;28;20219;-59
2022/05/16 09:09:15;;;;;;;5.25;3.33;;;23.80;99.90;;;;;;5013932;28;20177;-55
2022/05/16 09:12:23;;;;;;;3.40;2.92;;;23.80;99.90;;;;;;5013433;28;20200;-58
2022/05/16 09:14:54;;;;;;;5.78;3.40;;;24.00;99.90;;;;;;5012908;28;20736;-62
2022/05/16 09:17:54;;;;;;;5.47;3.78;;;24.50;99.80;;;;;;5013763;28;20546;-60
2022/05/16 09:20:54;;;;;;;3.38;2.92;;;24.70;98.20;;;;;;5009322;28;20605;-59
2022/05/16 09:24:00;;;;;;;3.50;3.20;;;25.00;99.90;;;;;;5012777;28;20212;-59
2022/05/16 09:27:10;;;;;;;3.90;3.10;;;25.00;98.20;;;;;;5013274;28;20568;-62
2022/05/16 09:29:39;;;;;;;4.07;3.22;;;25.20;99.30;;;;;;4933368;29;20334;-62
2022/05/16 09:32:12;;;;;;;5.47;3.40;;;25.50;98.50;;;;;;4933170;29;20179;-60
2022/05/16 09:34:38;;;;;;;3.90;3.42;;;25.50;97.10;;;;;;4932510;29;20191;-58
2022/05/16 09:37:04;;;;;;;6.30;3.35;;;25.70;97.70;;;;;;4933123;29;20185;-57
2022/05/16 09:39:35;;;;;;;4.35;3.25;;;25.80;97.70;;;;;;4933290;29;20187;-58
2022/05/16 09:42:03;;;;;;;5.50;3.10;;;26.00;97.40;;;;;;4929229;29;20598;-61
2022/05/16 09:44:41;;;;;;;5.10;3.95;;;26.20;98.00;;;;;;4930987;29;20215;-58
2022/05/16 09:47:36;;;;;;;5.18;3.80;;;26.20;96.80;;;;;;4931637;29;20232;-60
2022/05/16 09:50:21;;;;;;;3.78;3.38;;;26.10;96.60;;;;;;4932851;29;20187;-61
2022/05/16 09:53:02;;;;;;;3.33;3.00;;;26.20;97.50;;;;;;4924573;29;20187;-59
2022/05/16 09:55:41;;;;;;;3.83;3.10;;;26.10;97.30;;;;;;4940018;29;20541;-57
2022/05/16 09:58:19;;;;;;;3.60;3.20;;;26.10;98.00;;;;;;4924460;29;20179;-57
2022/05/16 10:00:54;;;;;;;6.47;3.35;;;25.80;98.60;;;;;;4978237;28;20208;-60
2022/05/16 10:03:30;;;;;;;5.18;3.42;;;25.30;98.70;;;;;;5006196;28;20251;-61
2022/05/16 10:05:58;;;;;;;5.70;3.47;;;25.00;99.50;;;;;;5002973;28;20748;-59
2022/05/16 10:08:29;;;;;;;5.68;3.42;;;24.90;99.90;;;;;;5002779;28;20188;-59
2022/05/16 10:10:57;;;;;;;4.07;3.13;;;24.90;99.90;;;;;;5011184;28;20173;-61
2022/05/16 10:13:24;;;;;;;4.68;3.53;;;24.60;99.90;;;;;;5007252;28;20180;-57
2022/05/16 10:15:54;;;;;;;6.03;3.38;;;24.40;99.90;;;;;;4999179;28;20281;-58
2022/05/16 10:18:22;;;;;;;5.40;3.78;;;24.20;99.90;;;;;;5005660;28;20181;-60
2022/05/16 10:20:58;;;;;;;4.28;3.40;;;24.10;99.90;;;;;;4995191;28;20233;-61
2022/05/16 10:23:32;;;;;;;4.10;3.70;;;24.10;99.90;;;;;;4997452;28;20200;-62
2022/05/16 10:26:02;;;;;;;3.92;3.15;;;24.20;99.90;;;;;;4992067;28;20192;-63
2022/05/16 10:28:33;;;;;;;4.25;3.30;;;24.20;99.90;;;;;;4992646;28;20173;-62
2022/05/16 10:33:47;;;;;;;6.90;3.90;;;24.60;99.90;;;;;;5011306;28;20228;-61
2022/05/16 10:36:26;;;;;;;6.68;3.90;;;24.90;99.90;;;;;;5004960;28;20312;-59
2022/05/16 10:39:23;;;;;;;5.30;3.28;;;25.00;99.30;;;;;;5003532;28;20657;-56
2022/05/16 10:42:05;;;;;;;4.68;2.95;;;25.20;99.90;;;;;;5001680;28;20181;-59
2022/05/16 10:44:47;;;;;;;4.38;3.60;;;25.70;99.70;;;;;;5008163;28;20204;-58
2022/05/16 10:47:23;;;;;;;4.95;3.38;;;26.10;99.00;;;;;;5006614;28;20181;-60
2022/05/16 10:50:07;;;;;;;5.00;3.20;;;26.10;98.90;;;;;;5012892;28;20177;-58
2022/05/16 10:52:43;;;;;;;4.22;3.13;;;26.10;98.20;;;;;;5011519;28;20160;-59
2022/05/16 10:55:09;;;;;;;3.90;3.13;;;26.30;99.90;;;;;;5011369;28;20841;-56
2022/05/16 10:57:53;;;;;;;4.53;3.10;;;26.50;98.50;;;;;;4992066;28;20548;-58
2022/05/16 11:00:22;;;;;;;3.97;3.22;;;26.40;98.20;;;;;;4992280;28;20181;-56
2022/05/16 11:03:15;;;;;;;5.05;3.65;;;26.50;98.70;;;;;;5001215;28;20196;-58
2022/05/16 11:05:49;;;;;;;3.75;3.10;;;26.40;99.20;;;;;;5010651;28;20204;-55
2022/05/16 11:08:36;;;;;;;4.32;3.10;;;26.30;98.20;;;;;;5011398;28;20214;-59
2022/05/16 11:11:25;;;;;;;6.30;3.15;;;26.10;99.10;;;;;;5011235;28;20173;-58
2022/05/16 11:14:09;;;;;;;4.43;3.17;;;26.20;98.30;;;;;;5007770;28;20177;-59
2022/05/16 11:16:38;;;;;;;6.53;3.20;;;26.30;98.30;;;;;;4995321;28;20212;-58
2022/05/16 11:19:12;;;;;;;3.20;2.97;;;26.40;97.20;;;;;;4989527;28;20180;-58
2022/05/16 11:21:59;;;;;;;4.15;3.17;;;26.60;96.30;;;;;;4995706;28;20177;-58
2022/05/16 11:24:42;;;;;;;3.30;2.50;;;26.50;95.80;;;;;;4995555;28;20264;-59
2022/05/16 11:27:32;;;;;;;3.90;2.80;;;26.50;95.80;;;;;;4995301;28;20180;-59
2022/05/16 11:30:36;;;;;;;3.10;2.30;;;26.30;96.70;;;;;;5014341;28;20238;-59
2022/05/16 11:33:40;;;;;;;4.20;2.88;;;26.20;93.00;;;;;;5014784;28;20200;-59
2022/05/16 11:36:33;;;;;;;3.30;2.55;;;26.30;96.60;;;;;;5037392;23;20224;-58
2022/05/16 11:39:03;;;;;;;4.30;3.00;;;26.30;95.60;;;;;;5005828;28;20192;-58
2022/05/16 11:41:32;;;;;;;3.58;2.70;;;26.20;96.40;;;;;;5014856;28;20188;-57
2022/05/16 11:44:28;;;;;;;4.47;3.00;;;26.10;96.60;;;;;;5014321;28;20208;-56
2022/05/16 11:47:00;;;;;;;4.07;3.15;;;25.90;96.70;;;;;;4966643;28;20213;-55
2022/05/16 11:49:48;;;;;;;6.05;2.90;;;25.90;96.60;;;;;;4973373;28;20277;-58
2022/05/16 11:52:20;;;;;;;3.50;3.03;;;26.00;97.20;;;;;;4972798;28;20178;-53
2022/05/16 12:01:00;;;;;;;3.65;3.22;;;26.10;95.90;;;;;;4973433;28;20233;-55
2022/05/16 12:03:44;;;;;;;5.28;3.10;;;26.20;98.20;;;;;;4972949;28;20210;-55
2022/05/16 12:06:26;;;;;;;3.20;2.90;;;26.20;95.10;;;;;;4972920;28;20540;-56
2022/05/16 12:09:15;;;;;;;5.47;3.20;;;26.00;96.30;;;;;;4972825;28;20204;-57
2022/05/16 12:11:57;;;;;;;5.68;3.28;;;26.20;96.40;;;;;;4972706;28;20182;-58
2022/05/16 12:14:26;;;;;;;3.95;3.20;;;26.40;96.00;;;;;;4971842;28;20181;-59
2022/05/16 12:17:17;;;;;;;5.97;3.65;;;26.50;96.80;;;;;;4972484;28;20301;-55
2022/05/16 12:19:46;;;;;;;5.95;3.35;;;26.60;96.40;;;;;;4958187;28;20227;-57
2022/05/16 12:22:18;;;;;;;6.82;4.00;;;26.80;97.70;;;;;;4956860;28;20181;-55
2022/05/16 12:24:53;;;;;;;3.97;3.50;;;26.90;96.60;;;;;;5007517;28;20212;-58
2022/05/16 12:28:12;;;;;;;6.72;3.95;;;26.80;96.60;;;;;;5014194;28;20613;-57
2022/05/16 12:30:37;;;;;;;3.95;3.58;;;26.50;96.70;;;;;;4953432;29;20599;-55
2022/05/16 12:33:23;;;;;;;3.38;3.08;;;26.70;97.80;;;;;;5007852;28;20192;-53
2022/05/16 12:35:51;;;;;;;7.68;3.10;;;26.60;97.40;;;;;;5013533;28;20211;-53
2022/05/16 12:38:18;;;;;;;5.85;3.10;;;26.70;98.90;;;;;;5014099;28;20169;-53
2022/05/16 12:41:06;;;;;;;3.40;3.10;;;27.00;98.20;;;;;;5013306;28;20173;-55
2022/05/16 12:44:04;;;;;;;3.83;2.70;;;27.40;97.10;;;;;;5013679;28;20566;-56
2022/05/16 12:46:55;;;;;;;3.95;3.42;;;27.70;97.70;;;;;;5013876;28;20196;-54
2022/05/16 12:49:21;;;;;;;6.07;3.60;;;28.20;97.30;;;;;;4933204;29;20280;-53
2022/05/16 12:51:59;;;;;;;3.65;3.20;;;28.40;96.70;;;;;;4933884;29;20186;-55
2022/05/16 12:55:10;;;;;;;4.47;3.40;;;28.30;97.40;;;;;;4933847;29;20705;-58
2022/05/16 12:57:47;;;;;;;5.95;3.60;;;28.20;95.80;;;;;;4933917;29;20676;-53
2022/05/16 13:00:39;;;;;;;5.55;3.60;;;27.80;94.90;;;;;;4933618;29;20191;-53
2022/05/16 13:03:14;;;;;;;4.32;3.80;;;27.70;96.10;;;;;;4921075;29;20625;-56
2022/05/16 13:05:45;;;;;;;3.88;3.40;;;27.60;96.80;;;;;;4933403;29;20197;-57
2022/05/16 13:08:36;;;;;;;4.53;3.33;;;27.60;96.50;;;;;;4933863;29;20207;-56
2022/05/16 13:11:25;;;;;;;4.05;3.00;;;27.70;96.00;;;;;;4933086;29;20212;-58
2022/05/16 13:13:57;;;;;;;5.85;3.53;;;27.80;96.20;;;;;;4933369;29;20187;-57
2022/05/16 13:16:27;;;;;;;8.50;3.47;;;27.60;95.10;;;;;;4933567;29;20613;-58
2022/05/16 13:19:07;;;;;;;5.07;2.95;;;27.20;95.90;;;;;;4933371;29;20199;-57
2022/05/16 13:21:55;;;;;;;7.88;3.10;;;26.90;96.10;;;;;;4932930;29;20182;-58
2022/05/16 13:24:23;;;;;;;5.45;2.90;;;26.70;96.70;;;;;;4932382;29;20220;-57
2022/05/16 13:29:37;;;;;;;5.07;3.00;;;27.00;96.00;;;;;;5013322;28;20231;-54
2022/05/16 13:32:20;;;;;;;4.03;3.05;;;26.60;95.20;;;;;;5012455;28;20173;-55
2022/05/16 13:34:47;;;;;;;7.40;2.92;;;26.40;96.50;;;;;;5012709;28;20179;-55
2022/05/16 13:37:19;;;;;;;4.72;2.90;;;26.20;97.60;;;;;;5012657;28;20205;-56
2022/05/16 13:39:48;;;;;;;3.50;3.20;;;26.00;97.40;;;;;;5012902;28;20697;-53
2022/05/16 13:42:13;;;;;;;4.88;2.70;;;25.80;96.50;;;;;;5012365;28;20203;-53
2022/05/16 13:44:45;;;;;;;4.45;2.90;;;25.70;96.80;;;;;;5012390;28;20242;-58
2022/05/16 13:47:13;;;;;;;4.35;2.90;;;25.70;96.70;;;;;;5012749;28;20193;-54
2022/05/16 13:49:40;;;;;;;4.82;3.10;;;25.80;97.90;;;;;;5012681;28;20230;-58
2022/05/16 13:52:22;;;;;;;4.78;3.38;;;26.20;96.90;;;;;;5012279;28;20196;-57